createdAt,value
2022-11-12T00:00:08.260Z,6.26
2022-11-12T00:01:04.698Z,6.22
2022-11-12T00:02:01.217Z,6.42
2022-11-12T00:02:58.041Z,6.46
2022-11-12T00:03:55.899Z,6.05
2022-11-12T00:04:52.349Z,5.95
2022-11-12T00:05:49.599Z,5.95
2022-11-12T00:06:46.217Z,6.02
2022-11-12T00:07:42.720Z,6.00
2022-11-12T00:08:39.210Z,6.14
2022-11-12T00:09:35.662Z,6.17
2022-11-12T00:10:32.499Z,6.07
2022-11-12T00:11:28.936Z,6.04
2022-11-12T00:12:25.400Z,5.97
2022-11-12T00:13:21.892Z,6.02
2022-11-12T00:14:18.354Z,5.97
2022-11-12T00:17:25.001Z,6.16
2022-11-12T00:18:21.878Z,6.12
2022-11-12T00:19:18.440Z,6.47
2022-11-12T00:20:15.180Z,6.52
2022-11-12T00:21:11.632Z,6.49
2022-11-12T00:22:08.162Z,6.69
2022-11-12T00:23:04.759Z,6.36
2022-11-12T00:24:01.296Z,6.42
2022-11-12T00:24:57.794Z,6.28
2022-11-12T00:26:00.834Z,6.22
2022-11-12T00:26:57.407Z,6.34
2022-11-12T00:27:53.973Z,6.23
2022-11-12T00:28:50.509Z,6.25
2022-11-12T00:29:46.945Z,6.52
2022-11-12T00:30:43.430Z,6.31
2022-11-12T00:31:39.963Z,6.54
2022-11-12T00:32:37.518Z,6.33
2022-11-12T00:33:34.017Z,6.40
2022-11-12T00:34:31.332Z,6.47
2022-11-12T00:35:27.885Z,6.66
2022-11-12T00:36:24.360Z,6.75
2022-11-12T00:37:23.128Z,6.46
2022-11-12T00:38:19.672Z,6.43
2022-11-12T00:39:16.199Z,6.39
2022-11-12T00:40:12.701Z,6.41
2022-11-12T00:41:09.179Z,6.30
2022-11-12T00:42:05.650Z,6.50
2022-11-12T00:43:02.117Z,6.55
2022-11-12T00:43:58.680Z,6.37
2022-11-12T00:44:55.159Z,6.31
2022-11-12T00:45:51.835Z,6.22
2022-11-12T00:46:48.277Z,6.14
2022-11-12T00:47:45.150Z,6.13
2022-11-12T00:48:41.618Z,5.91
2022-11-12T00:49:38.218Z,6.01
2022-11-12T00:50:34.672Z,6.14
2022-11-12T00:51:31.166Z,6.12
2022-11-12T00:52:29.231Z,6.10
2022-11-12T00:53:25.697Z,6.05
2022-11-12T00:54:22.159Z,6.21
2022-11-12T00:55:18.621Z,6.11
2022-11-12T00:56:15.369Z,5.87
2022-11-12T00:57:11.786Z,6.20
2022-11-12T00:58:08.256Z,6.33
2022-11-12T00:59:04.742Z,6.22
2022-11-12T01:00:01.186Z,6.11
2022-11-12T01:00:58.439Z,6.06
2022-11-12T01:01:54.971Z,6.20
2022-11-12T01:02:51.657Z,6.29
2022-11-12T01:03:48.182Z,6.11
2022-11-12T01:04:44.881Z,6.17
2022-11-12T01:05:41.410Z,6.32
2022-11-12T01:06:39.568Z,6.62
2022-11-12T01:07:36.123Z,6.34
2022-11-12T01:08:33.181Z,6.44
2022-11-12T01:09:29.619Z,6.34
2022-11-12T01:10:26.154Z,6.24
2022-11-12T01:11:23.963Z,6.16
2022-11-12T01:12:20.440Z,6.09
2022-11-12T01:13:16.934Z,6.08
2022-11-12T01:14:13.434Z,6.13
2022-11-12T01:15:10.075Z,6.07
2022-11-12T01:16:11.803Z,6.10
2022-11-12T01:17:08.268Z,6.18
2022-11-12T01:18:04.773Z,6.15
2022-11-12T01:19:02.275Z,6.19
2022-11-12T01:19:58.737Z,6.10
2022-11-12T01:20:55.473Z,6.05
2022-11-12T01:21:51.982Z,6.12
2022-11-12T01:22:48.458Z,6.05
2022-11-12T01:23:44.915Z,6.15
2022-11-12T01:24:41.396Z,6.06
2022-11-12T01:25:38.390Z,6.02
2022-11-12T01:26:35.164Z,6.09
2022-11-12T01:27:31.641Z,6.03
2022-11-12T01:28:29.165Z,5.97
2022-11-12T01:29:25.752Z,6.05
2022-11-12T01:30:22.231Z,6.03
2022-11-12T01:31:25.943Z,6.05
2022-11-12T01:32:22.392Z,6.06
2022-11-12T01:33:18.864Z,6.03
2022-11-12T01:34:15.395Z,6.05
2022-11-12T01:35:11.864Z,6.11
2022-11-12T01:36:08.812Z,6.08
2022-11-12T01:37:05.312Z,6.13
2022-11-12T01:38:01.852Z,6.23
2022-11-12T01:38:58.425Z,6.14
2022-11-12T01:39:54.861Z,6.16
2022-11-12T01:40:51.265Z,6.23
2022-11-12T01:41:47.715Z,6.15
2022-11-12T01:42:50.899Z,6.10
2022-11-12T01:43:47.438Z,6.10
2022-11-12T01:44:44.731Z,6.15
2022-11-12T01:45:43.066Z,6.15
2022-11-12T01:46:58.315Z,6.14
2022-11-12T01:47:54.865Z,6.19
2022-11-12T01:48:58.401Z,6.13
2022-11-12T01:50:13.610Z,6.10
2022-11-12T01:51:12.025Z,6.10
2022-11-12T01:52:20.909Z,6.20
2022-11-12T01:53:17.504Z,6.16
2022-11-12T01:54:17.276Z,6.19
2022-11-12T01:55:26.193Z,6.17
2022-11-12T01:56:24.032Z,6.22
2022-11-12T01:57:24.158Z,6.25
2022-11-12T01:58:22.276Z,6.32
2022-11-12T01:59:25.008Z,6.19
2022-11-12T02:00:21.562Z,6.09
2022-11-12T02:01:18.121Z,6.17
2022-11-12T02:02:14.692Z,6.11
2022-11-12T02:03:14.722Z,6.16
2022-11-12T02:04:11.328Z,6.16
2022-11-12T02:05:09.952Z,6.21
2022-11-12T02:06:09.451Z,6.24
2022-11-12T02:07:07.055Z,6.20
2022-11-12T02:08:04.545Z,6.30
2022-11-12T02:09:01.020Z,6.27
2022-11-12T02:09:58.044Z,6.39
2022-11-12T02:10:54.610Z,6.33
2022-11-12T02:11:51.094Z,6.28
2022-11-12T02:13:07.564Z,6.27
2022-11-12T02:14:05.192Z,6.25
2022-11-12T02:15:02.016Z,6.22
2022-11-12T02:15:58.826Z,6.17
2022-11-12T02:16:55.284Z,6.26
2022-11-12T02:17:51.879Z,6.16
2022-11-12T02:18:48.327Z,6.28
2022-11-12T02:19:46.653Z,6.25
2022-11-12T02:20:43.097Z,6.18
2022-11-12T02:21:40.040Z,6.28
2022-11-12T02:22:36.475Z,6.23
2022-11-12T02:23:32.939Z,6.22
2022-11-12T02:24:32.378Z,6.27
2022-11-12T02:25:28.813Z,6.21
2022-11-12T02:26:25.728Z,6.24
2022-11-12T02:27:23.110Z,6.22
2022-11-12T02:28:19.580Z,6.27
2022-11-12T02:29:16.009Z,6.31
2022-11-12T02:30:12.632Z,6.19
2022-11-12T02:31:09.066Z,6.19
2022-11-12T02:32:05.566Z,6.27
2022-11-12T02:33:02.201Z,6.05
2022-11-12T02:33:58.815Z,6.08
2022-11-12T02:34:55.356Z,6.16
2022-11-12T02:35:51.843Z,6.12
2022-11-12T02:36:48.315Z,6.16
2022-11-12T02:37:44.772Z,6.13
2022-11-12T02:38:41.293Z,6.13
2022-11-12T02:39:37.883Z,6.16
2022-11-12T02:40:34.514Z,6.06
2022-11-12T02:41:31.001Z,6.05
2022-11-12T02:42:27.491Z,6.03
2022-11-12T02:43:24.048Z,6.01
2022-11-12T02:44:20.570Z,6.01
2022-11-12T02:45:17.479Z,6.06
2022-11-12T02:46:14.344Z,6.07
2022-11-12T02:47:10.800Z,6.01
2022-11-12T02:48:07.248Z,6.04
2022-11-12T02:49:03.767Z,6.02
2022-11-12T02:50:00.215Z,6.00
2022-11-12T02:50:56.671Z,5.94
2022-11-12T02:51:53.109Z,5.99
2022-11-12T02:52:49.563Z,5.92
2022-11-12T02:53:46.004Z,5.89
2022-11-12T02:54:42.463Z,5.84
2022-11-12T02:55:39.200Z,5.75
2022-11-12T02:56:35.740Z,5.73
2022-11-12T02:57:32.190Z,5.70
2022-11-12T02:58:29.507Z,5.78
2022-11-12T02:59:26.123Z,5.73
2022-11-12T03:00:22.609Z,5.73
2022-11-12T03:01:19.173Z,5.66
2022-11-12T03:02:15.645Z,5.59
2022-11-12T03:03:12.178Z,5.57
2022-11-12T03:04:08.753Z,5.54
2022-11-12T03:05:05.562Z,5.58
2022-11-12T03:06:02.051Z,5.60
2022-11-12T03:06:58.547Z,5.45
2022-11-12T03:07:59.091Z,5.49
2022-11-12T03:08:55.565Z,5.47
2022-11-12T03:09:52.069Z,5.48
2022-11-12T03:10:48.512Z,5.38
2022-11-12T03:11:44.983Z,5.35
2022-11-12T03:12:41.434Z,5.32
2022-11-12T03:13:38.225Z,5.35
2022-11-12T03:14:34.656Z,5.50
2022-11-12T03:15:31.127Z,5.38
2022-11-12T03:16:27.591Z,5.07
2022-11-12T03:17:24.128Z,4.93
2022-11-12T03:18:20.541Z,4.88
2022-11-12T03:19:16.995Z,4.88
2022-11-12T03:20:13.512Z,4.95
2022-11-12T03:21:09.971Z,4.96
2022-11-12T03:22:06.430Z,4.88
2022-11-12T03:23:04.332Z,4.87
2022-11-12T03:24:01.301Z,4.94
2022-11-12T03:24:57.857Z,4.89
2022-11-12T03:25:54.377Z,4.79
2022-11-12T03:26:50.863Z,4.73
2022-11-12T03:27:47.327Z,4.70
2022-11-12T03:28:43.775Z,4.68
2022-11-12T03:29:40.244Z,4.61
2022-11-12T03:30:38.450Z,4.57
2022-11-12T03:31:35.762Z,4.64
2022-11-12T03:32:32.230Z,4.67
2022-11-12T03:33:28.712Z,4.65
2022-11-12T03:34:25.171Z,4.67
2022-11-12T03:35:21.893Z,4.64
2022-11-12T03:36:18.473Z,4.60
2022-11-12T03:37:14.919Z,4.71
2022-11-12T03:38:11.372Z,4.57
2022-11-12T03:39:07.838Z,4.45
2022-11-12T03:40:04.486Z,4.46
2022-11-12T03:41:00.950Z,4.50
2022-11-12T03:41:57.442Z,4.42
2022-11-12T03:42:54.290Z,4.52
2022-11-12T03:43:50.749Z,4.55
2022-11-12T03:44:47.254Z,4.58
2022-11-12T03:45:43.714Z,4.58
2022-11-12T03:46:43.997Z,4.55
2022-11-12T03:47:51.260Z,4.44
2022-11-12T03:48:47.784Z,4.15
2022-11-12T03:49:44.281Z,4.15
2022-11-12T03:50:40.746Z,4.15
2022-11-12T03:51:37.189Z,4.21
2022-11-12T03:52:33.639Z,4.14
2022-11-12T03:53:30.121Z,4.05
2022-11-12T03:54:26.573Z,4.21
2022-11-12T03:55:23.816Z,4.33
2022-11-12T03:56:20.307Z,4.12
2022-11-12T03:57:16.822Z,4.08
2022-11-12T03:58:13.285Z,4.02
2022-11-12T03:59:10.377Z,3.75
2022-11-12T04:00:08.396Z,3.77
2022-11-12T04:01:04.931Z,3.69
2022-11-12T04:02:01.524Z,3.72
2022-11-12T04:02:58.472Z,3.85
2022-11-12T04:03:55.029Z,3.82
2022-11-12T04:05:10.052Z,3.69
2022-11-12T04:06:25.524Z,3.87
2022-11-12T04:07:40.690Z,4.11
2022-11-12T04:08:37.293Z,4.21
2022-11-12T04:09:33.820Z,4.23
2022-11-12T04:10:31.156Z,4.27
2022-11-12T04:11:27.658Z,4.16
2022-11-12T04:12:42.548Z,4.14
2022-11-12T04:13:39.539Z,4.15
2022-11-12T04:14:36.031Z,4.21
2022-11-12T04:15:32.718Z,4.11
2022-11-12T04:16:47.826Z,4.29
2022-11-12T04:18:03.051Z,4.17
2022-11-12T04:19:19.244Z,4.25
2022-11-12T04:20:34.145Z,3.79
2022-11-12T04:21:50.980Z,3.76
2022-11-12T04:22:47.462Z,3.75
2022-11-12T04:23:43.950Z,3.16
2022-11-12T04:25:00.367Z,3.53
2022-11-12T04:26:15.468Z,3.68
2022-11-12T04:27:15.014Z,3.94
2022-11-12T04:28:11.519Z,4.01
2022-11-12T04:29:27.090Z,4.06
2022-11-12T04:30:23.528Z,3.97
2022-11-12T04:31:20.021Z,4.31
2022-11-12T04:32:16.659Z,4.50
2022-11-12T04:33:13.307Z,4.68
2022-11-12T04:34:28.663Z,4.69
2022-11-12T04:35:26.420Z,4.77
2022-11-12T04:36:22.907Z,4.88
2022-11-12T04:37:23.325Z,4.89
2022-11-12T04:38:20.131Z,4.93
2022-11-12T04:39:16.626Z,4.98
2022-11-12T04:40:31.467Z,4.99
2022-11-12T04:41:46.391Z,5.12
2022-11-12T04:43:06.407Z,5.19
2022-11-12T04:44:21.487Z,5.09
2022-11-12T04:45:18.000Z,5.05
2022-11-12T04:46:14.542Z,5.08
2022-11-12T04:47:11.001Z,5.11
2022-11-12T04:48:07.456Z,5.13
2022-11-12T04:49:03.921Z,5.25
2022-11-12T04:50:01.016Z,5.43
2022-11-12T04:51:01.456Z,5.30
2022-11-12T04:52:06.487Z,5.27
2022-11-12T04:53:02.980Z,5.22
2022-11-12T04:53:59.444Z,5.31
2022-11-12T04:54:56.586Z,5.27
2022-11-12T04:55:53.736Z,5.12
2022-11-12T04:56:50.219Z,5.32
2022-11-12T04:57:46.692Z,5.36
2022-11-12T04:58:43.873Z,5.22
2022-11-12T04:59:40.348Z,5.39
2022-11-12T05:00:36.796Z,5.40
2022-11-12T05:01:33.343Z,5.35
2022-11-12T05:02:29.870Z,5.30
2022-11-12T05:03:26.324Z,5.29
2022-11-12T05:04:22.840Z,5.20
2022-11-12T05:05:19.299Z,5.22
2022-11-12T05:06:34.253Z,5.39
2022-11-12T05:07:32.036Z,5.27
2022-11-12T05:08:28.752Z,5.14
2022-11-12T05:09:26.783Z,5.09
2022-11-12T05:10:23.303Z,5.11
2022-11-12T05:11:19.798Z,5.21
2022-11-12T05:12:16.290Z,5.20
2022-11-12T05:13:12.741Z,5.10
2022-11-12T05:14:09.315Z,5.01
2022-11-12T05:15:06.086Z,4.93
2022-11-12T05:16:02.582Z,4.89
2022-11-12T05:16:59.050Z,4.92
2022-11-12T05:17:55.531Z,4.91
2022-11-12T05:18:52.002Z,5.25
2022-11-12T05:19:48.436Z,5.32
2022-11-12T05:20:44.895Z,5.15
2022-11-12T05:21:59.999Z,5.03
2022-11-12T05:23:06.912Z,4.98
2022-11-12T05:24:04.096Z,4.94
2022-11-12T05:25:00.523Z,5.34
2022-11-12T05:25:56.982Z,5.79
2022-11-12T05:26:53.609Z,5.74
2022-11-12T05:27:50.131Z,5.77
2022-11-12T05:28:46.554Z,5.77
2022-11-12T05:29:43.075Z,5.43
2022-11-12T05:30:39.526Z,5.39
2022-11-12T05:31:36.099Z,5.35
2022-11-12T05:32:32.547Z,5.52
2022-11-12T05:33:29.017Z,5.24
2022-11-12T05:34:25.735Z,5.20
2022-11-12T05:35:22.261Z,5.29
2022-11-12T05:36:18.713Z,5.22
2022-11-12T05:37:15.740Z,5.33
2022-11-12T05:38:12.218Z,5.41
2022-11-12T05:39:08.707Z,5.61
2022-11-12T05:40:05.502Z,5.81
2022-11-12T05:41:01.947Z,5.89
2022-11-12T05:42:12.370Z,5.77
2022-11-12T05:43:10.055Z,5.77
2022-11-12T05:44:06.636Z,5.83
2022-11-12T05:45:03.352Z,6.00
2022-11-12T05:45:59.810Z,5.88
2022-11-12T05:46:56.482Z,5.86
2022-11-12T05:47:52.978Z,6.02
2022-11-12T05:48:49.430Z,6.07
2022-11-12T05:49:45.927Z,6.10
2022-11-12T05:51:06.161Z,6.27
2022-11-12T05:51:58.814Z,6.37
2022-11-12T05:52:55.248Z,6.23
2022-11-12T05:53:51.703Z,6.09
2022-11-12T05:54:48.206Z,6.05
2022-11-12T05:55:44.785Z,6.30
2022-11-12T05:56:41.394Z,6.35
2022-11-12T05:57:37.846Z,6.39
2022-11-12T05:58:35.327Z,6.45
2022-11-12T05:59:31.786Z,6.46
2022-11-12T06:00:28.291Z,6.25
2022-11-12T06:01:24.784Z,6.24
2022-11-12T06:02:21.404Z,6.33
2022-11-12T06:03:17.945Z,6.45
2022-11-12T06:04:15.155Z,6.50
2022-11-12T06:05:11.777Z,6.67
2022-11-12T06:06:08.405Z,6.66
2022-11-12T06:07:05.003Z,6.64
2022-11-12T06:08:01.926Z,6.69
2022-11-12T06:08:58.361Z,6.90
2022-11-12T06:09:54.805Z,6.98
2022-11-12T06:10:55.118Z,6.75
2022-11-12T06:11:51.586Z,6.63
2022-11-12T06:12:48.130Z,6.85
2022-11-12T06:13:44.658Z,6.72
2022-11-12T06:14:41.125Z,6.77
2022-11-12T06:15:39.394Z,6.62
2022-11-12T06:16:36.136Z,6.43
2022-11-12T06:17:32.602Z,6.40
2022-11-12T06:18:29.356Z,6.28
2022-11-12T06:19:26.133Z,6.47
2022-11-12T06:20:22.920Z,6.47
2022-11-12T06:21:19.445Z,6.52
2022-11-12T06:22:15.955Z,6.48
2022-11-12T06:23:12.396Z,6.68
2022-11-12T06:24:09.076Z,6.65
2022-11-12T06:25:05.945Z,6.49
2022-11-12T06:26:03.244Z,6.62
2022-11-12T06:26:59.726Z,6.71
2022-11-12T06:27:56.207Z,6.79
2022-11-12T06:28:52.733Z,6.77
2022-11-12T06:29:49.231Z,6.66
2022-11-12T06:30:45.667Z,6.83
2022-11-12T06:31:42.192Z,7.12
2022-11-12T06:32:38.630Z,7.06
2022-11-12T06:33:35.161Z,6.73
2022-11-12T06:34:31.603Z,6.79
2022-11-12T06:35:31.129Z,6.75
2022-11-12T06:36:27.604Z,6.75
2022-11-12T06:37:24.128Z,6.80
2022-11-12T06:38:20.777Z,6.93
2022-11-12T06:39:17.237Z,7.03
2022-11-12T06:40:13.750Z,7.18
2022-11-12T06:41:11.383Z,7.28
2022-11-12T06:42:07.827Z,7.19
2022-11-12T06:43:04.341Z,7.00
2022-11-12T06:44:00.787Z,6.71
2022-11-12T06:44:57.230Z,6.22
2022-11-12T06:45:53.806Z,6.84
2022-11-12T06:46:50.300Z,6.92
2022-11-12T06:47:47.012Z,7.07
2022-11-12T06:48:43.519Z,7.29
2022-11-12T06:49:39.960Z,7.21
2022-11-12T06:50:36.677Z,7.10
2022-11-12T06:51:33.268Z,7.03
2022-11-12T06:52:29.715Z,6.78
2022-11-12T06:53:26.176Z,6.94
2022-11-12T06:54:22.681Z,6.82
2022-11-12T06:55:19.983Z,6.70
2022-11-12T06:56:16.470Z,6.62
2022-11-12T06:57:13.137Z,6.70
2022-11-12T06:58:09.641Z,6.76
2022-11-12T06:59:06.102Z,6.76
2022-11-12T07:00:02.603Z,6.73
2022-11-12T07:01:08.515Z,6.86
2022-11-12T07:02:07.932Z,6.82
2022-11-12T07:03:08.303Z,6.93
2022-11-12T07:04:04.778Z,6.92
2022-11-12T07:05:01.283Z,7.00
2022-11-12T07:05:57.714Z,6.72
2022-11-12T07:06:54.206Z,6.79
2022-11-12T07:07:50.648Z,6.91
2022-11-12T07:08:47.607Z,6.93
2022-11-12T07:09:44.072Z,7.05
2022-11-12T07:10:40.559Z,7.09
2022-11-12T07:11:37.056Z,7.07
2022-11-12T07:12:33.617Z,6.92
2022-11-12T07:13:31.841Z,6.85
2022-11-12T07:14:28.333Z,6.84
2022-11-12T07:15:25.043Z,6.94
2022-11-12T07:16:22.545Z,7.01
2022-11-12T07:17:18.974Z,7.11
2022-11-12T07:18:15.415Z,7.12
2022-11-12T07:19:11.932Z,7.04
2022-11-12T07:20:08.822Z,6.99
2022-11-12T07:21:09.019Z,7.05
2022-11-12T07:22:05.480Z,6.82
2022-11-12T07:23:02.046Z,7.07
2022-11-12T07:23:58.611Z,7.17
2022-11-12T07:24:55.104Z,7.16
2022-11-12T07:25:58.768Z,7.01
2022-11-12T07:26:55.222Z,6.98
2022-11-12T07:27:52.950Z,6.72
2022-11-12T07:28:50.298Z,6.91
2022-11-12T07:29:48.407Z,6.76
2022-11-12T07:30:45.315Z,6.76
2022-11-12T07:31:41.879Z,6.85
2022-11-12T07:32:43.394Z,7.04
2022-11-12T07:33:43.198Z,7.11
2022-11-12T07:34:39.621Z,6.98
2022-11-12T07:35:36.042Z,6.99
2022-11-12T07:36:32.492Z,6.73
2022-11-12T07:37:29.027Z,6.82
2022-11-12T07:38:25.999Z,6.72
2022-11-12T07:39:22.713Z,7.03
2022-11-12T07:40:19.222Z,7.06
2022-11-12T07:41:15.682Z,7.23
2022-11-12T07:42:12.195Z,7.64
2022-11-12T07:43:08.656Z,7.55
2022-11-12T07:44:05.268Z,7.52
2022-11-12T07:45:01.854Z,7.66
2022-11-12T07:46:07.522Z,7.52
2022-11-12T07:47:06.704Z,7.40
2022-11-12T07:48:03.226Z,7.55
2022-11-12T07:48:59.836Z,7.71
2022-11-12T07:49:56.333Z,7.55
2022-11-12T07:50:52.793Z,7.45
2022-11-12T07:51:49.242Z,7.53
2022-11-12T07:52:45.695Z,7.68
2022-11-12T07:53:42.520Z,7.71
2022-11-12T07:54:38.964Z,7.83
2022-11-12T07:55:35.395Z,7.93
2022-11-12T07:56:31.888Z,8.12
2022-11-12T07:57:28.343Z,8.09
2022-11-12T07:58:25.645Z,7.97
2022-11-12T07:59:22.435Z,7.98
2022-11-12T08:00:19.046Z,8.16
2022-11-12T08:01:15.477Z,8.05
2022-11-12T08:02:11.987Z,8.05
2022-11-12T08:03:08.434Z,8.09
2022-11-12T08:04:06.113Z,8.32
2022-11-12T08:05:02.568Z,8.20
2022-11-12T08:05:59.805Z,8.28
2022-11-12T08:06:56.391Z,8.54
2022-11-12T08:07:55.190Z,8.83
2022-11-12T08:08:52.114Z,8.16
2022-11-12T08:09:48.702Z,8.58
2022-11-12T08:10:45.157Z,8.25
2022-11-12T08:11:42.267Z,8.62
2022-11-12T08:12:38.712Z,8.59
2022-11-12T08:13:35.158Z,8.75
2022-11-12T08:14:31.660Z,8.36
2022-11-12T08:15:28.165Z,8.54
2022-11-12T08:16:24.663Z,8.70
2022-11-12T08:17:21.115Z,9.13
2022-11-12T08:18:17.733Z,9.18
2022-11-12T08:19:14.193Z,9.51
2022-11-12T08:20:10.915Z,9.38
2022-11-12T08:21:09.941Z,9.25
2022-11-12T08:22:06.399Z,9.18
2022-11-12T08:23:03.154Z,8.77
2022-11-12T08:24:02.639Z,9.39
2022-11-12T08:24:59.079Z,9.80
2022-11-12T08:25:59.115Z,9.32
2022-11-12T08:26:55.546Z,8.81
2022-11-12T08:27:55.867Z,8.72
2022-11-12T08:28:52.292Z,9.62
2022-11-12T08:29:48.720Z,9.22
2022-11-12T08:30:45.672Z,9.32
2022-11-12T08:31:42.106Z,9.60
2022-11-12T08:32:38.520Z,9.02
2022-11-12T08:33:35.354Z,9.15
2022-11-12T08:34:31.820Z,9.23
2022-11-12T08:35:28.835Z,9.49
2022-11-12T08:36:25.427Z,9.49
2022-11-12T08:37:22.232Z,9.52
2022-11-12T08:38:18.904Z,9.06
2022-11-12T08:39:15.378Z,9.00
2022-11-12T08:40:12.245Z,8.56
2022-11-12T08:41:10.069Z,8.85
2022-11-12T08:42:06.538Z,8.79
2022-11-12T08:43:05.382Z,8.23
2022-11-12T08:44:07.157Z,8.34
2022-11-12T08:45:04.888Z,8.34
2022-11-12T08:46:02.271Z,8.36
2022-11-12T08:46:59.451Z,7.93
2022-11-12T08:47:59.742Z,8.05
2022-11-12T08:48:56.254Z,8.31
2022-11-12T08:49:52.719Z,8.34
2022-11-12T08:50:49.194Z,8.35
2022-11-12T08:51:45.671Z,8.59
2022-11-12T08:52:42.302Z,8.40
2022-11-12T08:53:38.829Z,7.88
2022-11-12T08:54:35.328Z,8.27
2022-11-12T08:55:33.348Z,8.19
2022-11-12T08:56:29.834Z,8.35
2022-11-12T08:57:26.312Z,8.49
2022-11-12T08:58:23.268Z,8.42
2022-11-12T08:59:19.812Z,8.57
2022-11-12T09:00:16.527Z,8.63
2022-11-12T09:01:13.092Z,8.77
2022-11-12T09:02:12.994Z,8.97
2022-11-12T09:03:13.698Z,9.44
2022-11-12T09:04:10.185Z,9.75
2022-11-12T09:05:06.848Z,10.01
2022-11-12T09:06:04.341Z,10.02
2022-11-12T09:07:00.809Z,9.79
2022-11-12T09:08:01.273Z,9.79
2022-11-12T09:08:57.771Z,10.33
2022-11-12T09:09:54.232Z,10.37
2022-11-12T09:10:51.217Z,9.64
2022-11-12T09:11:48.081Z,9.83
2022-11-12T09:12:44.678Z,10.27
2022-11-12T09:13:41.212Z,10.43
2022-11-12T09:14:37.767Z,10.94
2022-11-12T09:15:38.629Z,10.93
2022-11-12T09:16:35.387Z,10.42
2022-11-12T09:17:32.615Z,10.41
2022-11-12T09:18:29.415Z,9.41
2022-11-12T09:19:26.085Z,8.81
2022-11-12T09:20:23.013Z,9.60
2022-11-12T09:21:24.565Z,9.67
2022-11-12T09:22:21.039Z,10.28
2022-11-12T09:23:17.953Z,10.72
2022-11-12T09:24:14.631Z,10.67
2022-11-12T09:25:11.108Z,9.91
2022-11-12T09:26:07.611Z,10.29
2022-11-12T09:27:04.073Z,10.25
2022-11-12T09:28:07.566Z,10.11
2022-11-12T09:29:04.040Z,9.66
2022-11-12T09:30:00.488Z,10.10
2022-11-12T09:30:56.935Z,10.51
2022-11-12T09:31:54.066Z,10.58
2022-11-12T09:32:50.601Z,9.94
2022-11-12T09:33:47.046Z,9.31
2022-11-12T09:34:43.508Z,9.45
2022-11-12T09:35:39.939Z,9.52
2022-11-12T09:36:39.812Z,9.54
2022-11-12T09:37:40.016Z,9.48
2022-11-12T09:38:36.524Z,9.31
2022-11-12T09:39:33.044Z,9.19
2022-11-12T09:40:52.482Z,9.43
2022-11-12T09:41:48.931Z,9.12
2022-11-12T09:42:48.186Z,9.13
2022-11-12T09:43:57.188Z,8.93
2022-11-12T09:45:19.904Z,8.77
2022-11-12T09:46:27.584Z,9.44
2022-11-12T09:47:41.185Z,9.43
2022-11-12T09:48:41.615Z,9.13
2022-11-12T09:50:04.019Z,9.07
2022-11-12T09:51:04.104Z,8.72
2022-11-12T09:52:03.233Z,9.35
2022-11-12T09:53:07.773Z,9.13
2022-11-12T09:54:23.044Z,8.64
2022-11-12T09:55:22.552Z,8.50
2022-11-12T09:56:20.631Z,7.67
2022-11-12T09:57:17.108Z,8.89
2022-11-12T09:58:14.865Z,8.97
2022-11-12T09:59:12.687Z,9.12
2022-11-12T10:00:19.694Z,9.00
2022-11-12T10:01:18.815Z,8.82
2022-11-12T10:02:26.502Z,8.75
2022-11-12T10:03:22.988Z,8.36
2022-11-12T10:04:34.839Z,8.51
2022-11-12T10:05:34.655Z,8.62
2022-11-12T10:06:45.962Z,8.39
2022-11-12T10:07:42.656Z,8.71
2022-11-12T10:08:49.109Z,8.67
2022-11-12T10:09:48.396Z,8.62
2022-11-12T10:10:49.188Z,8.57
2022-11-12T10:12:07.328Z,8.23
2022-11-12T10:13:13.967Z,8.10
2022-11-12T10:14:28.464Z,8.31
2022-11-12T10:15:58.413Z,8.23
2022-11-12T10:16:54.832Z,8.58
2022-11-12T10:18:17.801Z,8.73
2022-11-12T10:19:20.185Z,8.60
2022-11-12T10:20:23.914Z,8.97
2022-11-12T10:21:22.973Z,9.09
2022-11-12T10:22:22.459Z,9.21
2022-11-12T10:23:21.031Z,9.00
2022-11-12T10:24:20.793Z,9.00
2022-11-12T10:25:19.703Z,8.74
2022-11-12T10:26:17.559Z,8.78
2022-11-12T10:27:27.439Z,8.92
2022-11-12T10:28:38.517Z,8.89
2022-11-12T10:29:42.499Z,8.16
2022-11-12T10:30:40.266Z,8.21
2022-11-12T10:31:37.086Z,8.60
2022-11-12T10:32:35.650Z,8.07
2022-11-12T10:33:32.180Z,8.44
2022-11-12T10:34:28.951Z,8.63
2022-11-12T10:35:25.448Z,8.12
2022-11-12T10:36:35.884Z,8.54
2022-11-12T10:37:41.785Z,8.82
2022-11-12T10:38:38.738Z,8.88
2022-11-12T10:39:40.443Z,9.08
2022-11-12T10:40:40.109Z,9.28
2022-11-12T10:41:36.744Z,8.38
2022-11-12T10:42:33.179Z,8.18
2022-11-12T10:43:29.641Z,8.65
2022-11-12T10:44:27.120Z,8.42
2022-11-12T10:45:23.898Z,8.53
2022-11-12T10:46:21.680Z,8.35
2022-11-12T10:47:18.203Z,8.37
2022-11-12T10:48:24.491Z,8.10
2022-11-12T10:49:24.667Z,8.51
2022-11-12T10:50:27.980Z,8.57
2022-11-12T10:51:32.463Z,8.39
2022-11-12T10:52:28.951Z,8.58
2022-11-12T10:53:31.005Z,8.57
2022-11-12T10:54:27.511Z,8.53
2022-11-12T10:55:44.250Z,8.94
2022-11-12T10:56:40.736Z,9.19
2022-11-12T10:57:37.219Z,9.27
2022-11-12T10:58:33.994Z,8.83
2022-11-12T10:59:30.455Z,9.34
2022-11-12T11:00:26.905Z,9.32
2022-11-12T11:01:23.451Z,8.63
2022-11-12T11:02:20.023Z,8.17
2022-11-12T11:03:19.644Z,8.35
2022-11-12T11:04:21.991Z,8.66
2022-11-12T11:05:35.388Z,8.81
2022-11-12T11:06:31.908Z,8.95
2022-11-12T11:07:28.483Z,9.10
2022-11-12T11:08:39.633Z,8.82
2022-11-12T11:09:36.384Z,8.85
2022-11-12T11:10:34.315Z,8.96
2022-11-12T11:11:31.195Z,8.91
2022-11-12T11:12:29.947Z,8.65
2022-11-12T11:13:28.645Z,8.63
2022-11-12T11:14:25.219Z,8.97
2022-11-12T11:15:23.287Z,8.98
2022-11-12T11:16:21.311Z,8.64
2022-11-12T11:17:18.822Z,8.82
2022-11-12T11:18:15.650Z,9.21
2022-11-12T11:19:12.184Z,8.80
2022-11-12T11:20:17.735Z,8.98
2022-11-12T11:21:20.343Z,8.97
2022-11-12T11:22:37.257Z,8.42
2022-11-12T11:23:33.758Z,8.55
2022-11-12T11:24:33.039Z,8.62
2022-11-12T11:25:29.876Z,9.00
2022-11-12T11:26:26.509Z,8.81
2022-11-12T11:27:48.519Z,8.49
2022-11-12T11:28:55.758Z,9.09
2022-11-12T11:30:12.480Z,9.20
2022-11-12T11:31:12.111Z,9.06
2022-11-12T11:32:19.815Z,9.06
2022-11-12T11:33:22.518Z,9.31
2022-11-12T11:34:24.993Z,8.72
2022-11-12T11:35:39.845Z,9.17
2022-11-12T11:36:48.093Z,8.77
2022-11-12T11:37:58.307Z,9.00
2022-11-12T11:38:58.493Z,8.88
2022-11-12T11:40:01.585Z,9.05
2022-11-12T11:41:16.285Z,9.57
2022-11-12T11:42:18.860Z,9.85
2022-11-12T11:43:27.658Z,9.37
2022-11-12T11:44:30.356Z,9.13
2022-11-12T11:45:46.304Z,9.22
2022-11-12T11:46:49.743Z,8.96
2022-11-12T11:48:02.590Z,8.93
2022-11-12T11:49:18.064Z,8.85
2022-11-12T11:50:20.668Z,8.57
2022-11-12T11:51:26.302Z,8.68
2022-11-12T11:52:22.783Z,8.42
2022-11-12T11:53:26.754Z,8.53
2022-11-12T11:54:34.521Z,8.76
2022-11-12T11:55:37.393Z,8.82
2022-11-12T11:56:36.642Z,8.27
2022-11-12T11:57:39.366Z,8.55
2022-11-12T11:58:54.721Z,8.46
2022-11-12T11:59:54.443Z,8.93
2022-11-12T12:01:00.108Z,9.11
2022-11-12T12:02:15.541Z,8.77
2022-11-12T12:03:17.478Z,8.65
2022-11-12T12:04:29.521Z,8.88
2022-11-12T12:05:26.138Z,9.09
2022-11-12T12:06:24.984Z,8.85
2022-11-12T12:07:21.719Z,8.95
2022-11-12T12:08:35.031Z,8.65
2022-11-12T12:09:43.715Z,8.59
2022-11-12T12:11:06.889Z,8.27
2022-11-12T12:12:24.460Z,8.63
2022-11-12T12:13:20.972Z,8.65
2022-11-12T12:14:17.379Z,8.80
2022-11-12T12:15:22.968Z,8.59
2022-11-12T12:16:19.461Z,8.47
2022-11-12T12:17:41.777Z,8.64
2022-11-12T12:18:38.520Z,8.86
2022-11-12T12:19:54.233Z,8.71
2022-11-12T12:20:56.750Z,8.62
2022-11-12T12:21:53.719Z,8.57
2022-11-12T12:22:57.284Z,8.58
2022-11-12T12:23:58.110Z,8.68
2022-11-12T12:25:01.299Z,9.00
2022-11-12T12:26:00.577Z,8.87
2022-11-12T12:27:03.777Z,8.83
2022-11-12T12:28:02.678Z,8.56
2022-11-12T12:28:59.131Z,8.75
2022-11-12T12:30:03.862Z,8.47
2022-11-12T12:31:04.794Z,8.57
2022-11-12T12:32:01.312Z,8.83
2022-11-12T12:33:03.980Z,8.44
2022-11-12T12:34:03.047Z,8.38
2022-11-12T12:35:06.375Z,8.44
2022-11-12T12:36:06.172Z,8.50
2022-11-12T12:37:11.265Z,8.78
2022-11-12T12:38:15.620Z,8.91
2022-11-12T12:39:17.660Z,8.59
2022-11-12T12:40:25.527Z,8.54
2022-11-12T12:41:32.967Z,8.13
2022-11-12T12:42:33.887Z,8.19
2022-11-12T12:43:40.178Z,8.16
2022-11-12T12:45:02.118Z,8.27
2022-11-12T12:45:58.594Z,8.18
2022-11-12T12:46:58.620Z,8.27
2022-11-12T12:47:56.491Z,8.16
2022-11-12T12:48:54.271Z,8.35
2022-11-12T12:49:51.043Z,8.52
2022-11-12T12:50:48.930Z,8.33
2022-11-12T12:51:45.454Z,8.08
2022-11-12T12:53:01.389Z,8.20
2022-11-12T12:53:59.207Z,8.02
2022-11-12T12:54:56.871Z,8.12
2022-11-12T12:55:54.523Z,8.20
2022-11-12T12:56:51.241Z,8.34
2022-11-12T12:57:47.752Z,8.21
2022-11-12T12:58:45.935Z,8.04
2022-11-12T12:59:42.391Z,7.56
2022-11-12T13:00:40.154Z,7.78
2022-11-12T13:01:36.979Z,8.02
2022-11-12T13:02:37.214Z,8.06
2022-11-12T13:03:42.760Z,8.00
2022-11-12T13:04:57.950Z,7.93
2022-11-12T13:06:06.184Z,8.10
2022-11-12T13:07:05.338Z,8.23
2022-11-12T13:08:08.183Z,7.92